Time;durP1;ratioP1;P1;durP2;ratioP2;P2;SDS_P1;SDS_P2;PMS_P1;PMS_P2;Temp;Humidity;BMP_temperature;BMP_pressure;BME280_temperature;BME280_humidity;BME280_pressure;Samples;Min_cycle;Max_cycle;Signal;HPM_P1;HPM_P2
2023/11/17 00:01:33;;;;;;;23.03;14.50;;;6.10;99.90;;;;;;5051555;28;20199;-69
2023/11/17 00:03:59;;;;;;;20.10;14.73;;;6.00;99.90;;;;;;5051174;28;20206;-69
2023/11/17 00:06:25;;;;;;;17.83;14.77;;;6.00;99.90;;;;;;5051544;28;20333;-69
2023/11/17 00:08:52;;;;;;;21.43;15.33;;;5.90;99.90;;;;;;5050647;28;20378;-69
2023/11/17 00:11:18;;;;;;;21.60;14.13;;;5.90;99.90;;;;;;5051385;28;20282;-69
2023/11/17 00:13:43;;;;;;;21.10;14.90;;;5.90;99.90;;;;;;5050848;28;20220;-69
2023/11/17 00:16:09;;;;;;;22.70;15.13;;;5.80;99.90;;;;;;5051096;28;20206;-69
2023/11/17 00:18:38;;;;;;;22.57;15.93;;;5.80;99.90;;;;;;5050993;28;20166;-69
2023/11/17 00:21:06;;;;;;;17.73;14.57;;;5.70;99.90;;;;;;5051404;28;20688;-69
2023/11/17 00:23:31;;;;;;;22.03;15.07;;;5.70;99.90;;;;;;5051223;28;20277;-69
2023/11/17 00:25:57;;;;;;;23.47;15.63;;;5.70;99.90;;;;;;5051030;28;20807;-69
2023/11/17 00:28:24;;;;;;;21.97;15.43;;;5.70;99.90;;;;;;5050576;28;20175;-69
2023/11/17 00:30:50;;;;;;;19.87;14.80;;;5.70;99.90;;;;;;5050653;28;20244;-69
2023/11/17 00:33:16;;;;;;;19.80;14.73;;;5.60;99.90;;;;;;5050995;28;20178;-69
2023/11/17 00:35:45;;;;;;;21.90;16.00;;;5.60;99.90;;;;;;5051062;28;20166;-69
2023/11/17 00:38:11;;;;;;;21.60;15.87;;;5.60;99.90;;;;;;5050970;28;20167;-70
2023/11/17 00:40:36;;;;;;;24.60;15.77;;;5.60;99.90;;;;;;5050915;28;20686;-69
2023/11/17 00:43:03;;;;;;;26.43;15.40;;;5.50;99.90;;;;;;5050523;28;20753;-69
2023/11/17 00:45:32;;;;;;;18.33;14.40;;;5.50;99.90;;;;;;5051104;28;20266;-69
2023/11/17 00:47:58;;;;;;;21.60;15.53;;;5.50;99.90;;;;;;5050648;28;20163;-69
2023/11/17 00:50:24;;;;;;;27.53;15.50;;;5.50;99.90;;;;;;5050935;28;20623;-69
2023/11/17 00:52:49;;;;;;;20.97;14.63;;;5.50;99.90;;;;;;5050483;28;20259;-69
2023/11/17 00:55:15;;;;;;;23.87;16.40;;;5.40;99.90;;;;;;5050918;28;20163;-69
2023/11/17 00:57:44;;;;;;;22.97;14.87;;;5.40;99.90;;;;;;5050716;28;20521;-69
2023/11/17 01:00:13;;;;;;;27.20;16.50;;;5.40;99.90;;;;;;5050678;28;20238;-69
2023/11/17 01:02:39;;;;;;;21.63;16.30;;;5.40;99.90;;;;;;5033593;28;20702;-69
2023/11/17 01:05:07;;;;;;;26.30;15.97;;;5.40;99.90;;;;;;5050982;28;20447;-69
2023/11/17 01:07:34;;;;;;;26.03;16.77;;;5.40;99.90;;;;;;5054359;28;20178;-69
2023/11/17 01:10:00;;;;;;;27.73;15.90;;;5.30;99.90;;;;;;5054201;28;20210;-69
2023/11/17 01:12:25;;;;;;;29.37;17.90;;;5.30;99.90;;;;;;5054495;28;20601;-70
2023/11/17 01:14:51;;;;;;;25.17;16.30;;;5.30;99.90;;;;;;5054453;28;20174;-69
2023/11/17 01:17:17;;;;;;;27.63;17.50;;;5.20;99.90;;;;;;5054468;28;20174;-69
2023/11/17 01:19:45;;;;;;;35.27;17.77;;;5.20;99.90;;;;;;5054499;28;20179;-69
2023/11/17 01:22:11;;;;;;;29.07;18.53;;;5.20;99.90;;;;;;5036455;28;20582;-69
2023/11/17 01:24:37;;;;;;;31.40;17.30;;;5.10;99.90;;;;;;5052332;28;20193;-69
2023/11/17 01:27:04;;;;;;;26.40;18.67;;;5.10;99.90;;;;;;5053947;28;20468;-69
2023/11/17 01:29:33;;;;;;;36.33;19.77;;;5.10;99.90;;;;;;5053765;28;20214;-70
2023/11/17 01:31:59;;;;;;;26.53;18.50;;;5.10;99.90;;;;;;5054045;28;20662;-70
2023/11/17 01:34:27;;;;;;;26.80;18.07;;;5.00;99.90;;;;;;5053585;28;20257;-69
2023/11/17 01:36:52;;;;;;;30.70;19.73;;;5.00;99.90;;;;;;5053752;28;20174;-69
2023/11/17 01:39:21;;;;;;;31.93;19.37;;;5.00;99.90;;;;;;5053915;28;20670;-68
2023/11/17 01:41:50;;;;;;;28.63;18.67;;;5.00;99.90;;;;;;5053939;28;20191;-69
2023/11/17 01:44:16;;;;;;;31.83;19.33;;;5.00;99.90;;;;;;5054409;28;20174;-69
2023/11/17 01:46:46;;;;;;;32.57;19.30;;;5.00;99.90;;;;;;5054174;28;20174;-69
2023/11/17 01:49:13;;;;;;;29.23;19.33;;;5.00;99.90;;;;;;5053454;28;20294;-70
2023/11/17 01:51:39;;;;;;;31.63;20.07;;;5.00;99.90;;;;;;5053991;28;20286;-69
2023/11/17 01:54:05;;;;;;;30.27;19.27;;;5.00;99.90;;;;;;5053776;28;20182;-69
2023/11/17 01:56:32;;;;;;;28.20;19.33;;;5.00;99.90;;;;;;5053789;28;20217;-69
2023/11/17 01:58:58;;;;;;;30.30;20.07;;;5.00;99.90;;;;;;5053385;28;20266;-69
2023/11/17 02:01:27;;;;;;;33.30;20.00;;;4.90;99.90;;;;;;5053967;28;20646;-69
2023/11/17 02:03:53;;;;;;;34.67;21.20;;;4.90;99.90;;;;;;5053240;28;20175;-69
2023/11/17 02:06:46;;;;;;;33.90;21.07;;;5.00;99.90;;;;;;5053801;28;20258;-69
2023/11/17 02:09:34;;;;;;;34.73;21.47;;;4.90;99.90;;;;;;5053221;28;20199;-69
2023/11/17 02:12:14;;;;;;;36.93;21.80;;;5.00;99.90;;;;;;5053334;28;20183;-69
2023/11/17 02:14:42;;;;;;;42.37;22.13;;;4.90;99.90;;;;;;5035285;28;20175;-69
2023/11/17 02:17:08;;;;;;;35.90;21.07;;;5.00;99.90;;;;;;5052755;28;20632;-69
2023/11/17 02:19:34;;;;;;;36.07;21.30;;;4.90;99.90;;;;;;5053295;28;20233;-69
2023/11/17 02:22:06;;;;;;;40.53;21.50;;;4.90;99.90;;;;;;5052953;28;20171;-69
2023/11/17 02:24:54;;;;;;;40.60;22.57;;;4.90;99.90;;;;;;5053228;28;20183;-69
2023/11/17 02:27:37;;;;;;;38.43;22.63;;;4.90;99.90;;;;;;5052986;28;20237;-69
2023/11/17 02:30:04;;;;;;;35.53;21.27;;;4.90;99.90;;;;;;5053082;28;20581;-69
2023/11/17 02:32:31;;;;;;;34.47;22.20;;;4.90;99.90;;;;;;5053597;28;20192;-69
2023/11/17 02:34:58;;;;;;;36.37;22.20;;;4.90;99.90;;;;;;5052859;28;20629;-69
2023/11/17 02:37:24;;;;;;;40.23;21.30;;;4.90;99.90;;;;;;5052999;28;20258;-69
2023/11/17 02:39:55;;;;;;;34.90;21.40;;;4.90;99.90;;;;;;5052885;28;20202;-69
2023/11/17 02:42:26;;;;;;;33.83;21.87;;;4.90;99.90;;;;;;5053121;28;20178;-69
2023/11/17 02:44:52;;;;;;;33.20;20.90;;;4.80;99.90;;;;;;5052853;28;20189;-69
2023/11/17 02:47:27;;;;;;;36.00;21.47;;;4.80;99.90;;;;;;5053162;28;20179;-69
2023/11/17 02:50:00;;;;;;;36.50;21.20;;;4.80;99.90;;;;;;5052725;28;20229;-70
2023/11/17 02:53:00;;;;;;;37.73;18.80;;;4.80;99.90;;;;;;5052925;28;20171;-69
2023/11/17 02:55:28;;;;;;;34.07;20.93;;;4.70;99.90;;;;;;5052977;28;20174;-70
2023/11/17 02:57:56;;;;;;;40.77;20.70;;;4.60;99.90;;;;;;5052628;28;20245;-69
2023/11/17 03:00:23;;;;;;;34.57;20.23;;;4.50;99.90;;;;;;5052262;28;20229;-69
2023/11/17 03:02:50;;;;;;;36.27;21.37;;;4.50;99.90;;;;;;5052612;28;20512;-70
2023/11/17 03:05:17;;;;;;;31.87;20.70;;;4.40;99.90;;;;;;5052476;28;20191;-69
2023/11/17 03:07:48;;;;;;;35.80;21.87;;;4.40;99.90;;;;;;5052463;28;20182;-69
2023/11/17 03:10:13;;;;;;;39.57;21.17;;;4.30;99.90;;;;;;5052304;28;20237;-69
2023/11/17 03:12:39;;;;;;;33.17;19.70;;;4.20;99.90;;;;;;5052903;28;20202;-70
2023/11/17 03:15:09;;;;;;;30.40;19.40;;;4.20;99.90;;;;;;5052624;28;20167;-69
2023/11/17 03:17:36;;;;;;;30.10;18.30;;;4.10;99.90;;;;;;5052581;28;20167;-69
2023/11/17 03:20:03;;;;;;;32.00;19.67;;;4.00;99.90;;;;;;5052495;28;20702;-69
2023/11/17 03:22:28;;;;;;;39.37;21.67;;;3.90;99.90;;;;;;5052484;28;20255;-69
2023/11/17 03:24:57;;;;;;;34.17;20.70;;;3.90;99.90;;;;;;5052090;28;20262;-69
2023/11/17 03:27:23;;;;;;;33.40;20.23;;;3.90;99.90;;;;;;5051908;28;20250;-70
2023/11/17 03:29:49;;;;;;;42.00;21.60;;;3.90;99.90;;;;;;5051492;28;20670;-70
2023/11/17 03:32:16;;;;;;;37.90;21.07;;;3.80;99.90;;;;;;5051990;28;20226;-70
2023/11/17 03:34:42;;;;;;;44.23;24.50;;;3.90;99.90;;;;;;5052378;28;20170;-70
2023/11/17 03:37:08;;;;;;;44.07;23.07;;;3.90;99.90;;;;;;5052005;28;20166;-70
2023/11/17 03:39:42;;;;;;;45.20;23.77;;;3.90;99.90;;;;;;5051887;28;20206;-70
2023/11/17 03:42:18;;;;;;;53.17;23.93;;;4.00;99.90;;;;;;5052056;28;20174;-70
2023/11/17 03:44:44;;;;;;;43.93;23.93;;;4.00;99.90;;;;;;5052259;28;20601;-70
2023/11/17 03:47:12;;;;;;;56.10;26.10;;;4.10;99.90;;;;;;5051786;28;20210;-70
2023/11/17 03:49:37;;;;;;;47.47;25.10;;;4.10;99.90;;;;;;5051897;28;20187;-70
2023/11/17 03:52:04;;;;;;;52.70;26.10;;;4.10;99.90;;;;;;5052109;28;20225;-70
2023/11/17 03:54:32;;;;;;;71.03;26.93;;;4.10;99.90;;;;;;5051620;28;20175;-70
2023/11/17 03:57:00;;;;;;;90.33;29.87;;;4.10;99.90;;;;;;5051569;28;20178;-70
2023/11/17 03:59:25;;;;;;;69.17;27.63;;;4.20;99.90;;;;;;5050654;28;20175;-70
2023/11/17 04:01:52;;;;;;;89.17;28.30;;;4.20;99.90;;;;;;5050592;28;20201;-70
2023/11/17 04:04:18;;;;;;;92.10;28.10;;;4.20;99.90;;;;;;5051219;28;20181;-71
2023/11/17 04:06:50;;;;;;;78.60;26.80;;;4.20;99.90;;;;;;5051244;28;20202;-70
2023/11/17 04:09:20;;;;;;;66.20;26.33;;;4.20;99.90;;;;;;5050916;28;20225;-70
2023/11/17 04:11:53;;;;;;;105.20;27.17;;;4.30;99.90;;;;;;5051448;28;20289;-71
2023/11/17 04:14:22;;;;;;;95.80;25.97;;;4.30;99.90;;;;;;5051302;28;20186;-71
2023/11/17 04:16:49;;;;;;;90.93;26.17;;;4.40;99.90;;;;;;5051559;28;20175;-70
2023/11/17 04:19:17;;;;;;;70.83;24.20;;;4.40;99.90;;;;;;5051294;28;20171;-70
2023/11/17 04:21:45;;;;;;;105.73;28.00;;;4.40;99.90;;;;;;5051167;28;20203;-70
2023/11/17 04:24:11;;;;;;;99.00;28.33;;;4.50;99.90;;;;;;5051232;28;20166;-70
2023/11/17 04:26:38;;;;;;;165.67;29.93;;;4.50;99.90;;;;;;5050780;28;20178;-70
2023/11/17 04:29:05;;;;;;;91.00;26.57;;;4.60;99.90;;;;;;5050687;28;20191;-70
2023/11/17 04:31:30;;;;;;;119.27;28.27;;;4.50;99.90;;;;;;5051488;28;20194;-70
2023/11/17 04:33:56;;;;;;;71.53;26.00;;;4.60;99.90;;;;;;5051391;28;20171;-70
2023/11/17 04:36:23;;;;;;;61.80;24.97;;;4.60;99.90;;;;;;5051368;28;20167;-70
2023/11/17 04:38:50;;;;;;;44.03;22.57;;;4.50;99.90;;;;;;5051030;28;20175;-70
2023/11/17 04:41:16;;;;;;;58.67;24.93;;;4.50;99.90;;;;;;5051236;28;20279;-71
2023/11/17 04:43:42;;;;;;;68.30;25.87;;;4.60;99.90;;;;;;5051517;28;20278;-70
2023/11/17 04:46:16;;;;;;;68.40;25.67;;;4.60;99.90;;;;;;5051221;28;20178;-70
2023/11/17 04:48:42;;;;;;;67.70;24.90;;;4.70;99.90;;;;;;5051038;28;20229;-70
2023/11/17 04:51:08;;;;;;;71.83;26.50;;;4.70;99.90;;;;;;5051383;28;20699;-71
2023/11/17 04:53:34;;;;;;;91.90;27.43;;;4.70;99.90;;;;;;5051284;28;20178;-70
2023/11/17 04:56:00;;;;;;;70.33;26.27;;;4.70;99.90;;;;;;5050789;28;20179;-70
2023/11/17 04:58:25;;;;;;;79.10;26.77;;;4.80;99.90;;;;;;5051116;28;20261;-70
2023/11/17 05:00:51;;;;;;;97.63;28.50;;;4.80;99.90;;;;;;5051125;28;20197;-70
2023/11/17 05:03:18;;;;;;;66.70;26.17;;;4.90;99.90;;;;;;5051172;28;20257;-70
2023/11/17 05:05:44;;;;;;;82.30;28.07;;;4.90;99.90;;;;;;5051263;28;20171;-70
2023/11/17 05:08:10;;;;;;;92.67;27.73;;;4.90;99.90;;;;;;5051034;28;20175;-70
2023/11/17 05:10:36;;;;;;;90.40;28.47;;;4.90;99.90;;;;;;5050757;28;20230;-70
2023/11/17 05:13:01;;;;;;;89.30;28.20;;;4.90;99.90;;;;;;5051076;28;20257;-70
2023/11/17 05:15:27;;;;;;;114.60;32.23;;;4.80;99.90;;;;;;5051034;28;20167;-70
2023/11/17 05:17:53;;;;;;;102.73;32.23;;;4.80;99.90;;;;;;5042367;28;20633;-70
2023/11/17 05:20:20;;;;;;;147.03;33.30;;;4.90;99.90;;;;;;5030704;28;20207;-70
2023/11/17 05:22:47;;;;;;;169.40;34.83;;;4.90;99.90;;;;;;5030844;28;20639;-70
2023/11/17 05:25:14;;;;;;;179.33;35.20;;;5.00;99.90;;;;;;5048099;28;20228;-73
2023/11/17 05:27:41;;;;;;;223.00;38.43;;;5.10;99.90;;;;;;5050761;28;20183;-70
2023/11/17 05:30:08;;;;;;;183.40;35.10;;;5.10;99.90;;;;;;5050770;28;20210;-70
2023/11/17 05:32:35;;;;;;;270.70;40.87;;;5.20;99.90;;;;;;5050672;28;20179;-70
2023/11/17 05:35:02;;;;;;;201.97;39.37;;;5.30;99.90;;;;;;5050523;28;20171;-69
2023/11/17 05:37:27;;;;;;;201.27;38.50;;;5.40;99.90;;;;;;5050733;28;20171;-70
2023/11/17 05:39:53;;;;;;;217.73;37.87;;;5.50;99.90;;;;;;5050684;28;20274;-70
2023/11/17 05:42:19;;;;;;;185.63;37.67;;;5.40;99.90;;;;;;5050331;28;20183;-70
2023/11/17 05:44:45;;;;;;;193.10;36.63;;;5.50;99.90;;;;;;5050590;28;20256;-70
2023/11/17 05:47:10;;;;;;;198.87;35.33;;;5.60;99.90;;;;;;5050323;28;20186;-69
2023/11/17 05:49:43;;;;;;;117.10;31.57;;;5.60;99.90;;;;;;5050366;28;20199;-70
2023/11/17 05:52:13;;;;;;;219.93;39.27;;;5.60;99.90;;;;;;5052410;28;20833;-70
2023/11/17 05:54:43;;;;;;;198.20;37.93;;;5.60;99.90;;;;;;5054476;28;20203;-70
2023/11/17 05:57:10;;;;;;;250.43;39.70;;;5.70;99.90;;;;;;5053950;28;20171;-70
2023/11/17 05:59:36;;;;;;;280.67;40.73;;;5.60;99.90;;;;;;5054291;28;20658;-70
2023/11/17 06:02:03;;;;;;;238.23;39.30;;;5.60;99.90;;;;;;5054035;28;20243;-70
2023/11/17 06:04:29;;;;;;;312.73;43.40;;;5.70;99.90;;;;;;5054408;28;20519;-70
2023/11/17 06:06:55;;;;;;;152.77;37.70;;;5.70;99.90;;;;;;5053779;28;20181;-71
2023/11/17 06:09:20;;;;;;;186.80;39.87;;;5.70;99.90;;;;;;5053360;28;20559;-71
2023/11/17 06:11:46;;;;;;;292.47;43.40;;;5.80;99.90;;;;;;5054132;28;20206;-70
2023/11/17 06:14:11;;;;;;;250.23;41.50;;;5.80;99.90;;;;;;5053095;28;20549;-70
2023/11/17 06:16:37;;;;;;;212.87;39.73;;;5.80;99.90;;;;;;5053695;28;20175;-69
2023/11/17 06:19:04;;;;;;;251.80;41.83;;;5.80;99.90;;;;;;5052921;28;20256;-70
2023/11/17 06:21:29;;;;;;;241.30;45.57;;;5.90;99.90;;;;;;5053433;28;20211;-70
2023/11/17 06:23:55;;;;;;;196.17;38.77;;;5.90;99.90;;;;;;5053681;28;20263;-70
2023/11/17 06:26:22;;;;;;;150.50;37.57;;;5.80;99.90;;;;;;5053479;28;20652;-70
2023/11/17 06:28:48;;;;;;;371.83;49.37;;;5.80;99.90;;;;;;5053259;28;20203;-70
2023/11/17 06:31:14;;;;;;;221.70;39.47;;;5.90;99.90;;;;;;5053030;28;20565;-70
2023/11/17 06:33:40;;;;;;;266.20;41.77;;;5.90;99.90;;;;;;5053334;28;20201;-70
2023/11/17 06:36:06;;;;;;;295.97;42.03;;;5.80;99.90;;;;;;5053092;28;20644;-70
2023/11/17 06:38:33;;;;;;;370.83;45.33;;;5.80;99.90;;;;;;5053537;28;20663;-70
2023/11/17 06:41:00;;;;;;;236.67;38.10;;;5.80;99.90;;;;;;5052744;28;20202;-70
2023/11/17 06:43:28;;;;;;;215.07;40.17;;;5.80;99.90;;;;;;5052543;28;20542;-70
2023/11/17 06:45:54;;;;;;;235.23;40.47;;;5.80;99.90;;;;;;5053084;28;20182;-71
2023/11/17 06:48:20;;;;;;;277.60;40.70;;;5.80;99.90;;;;;;5052498;28;20258;-71
2023/11/17 06:50:48;;;;;;;302.87;43.60;;;5.80;99.90;;;;;;5052768;28;20201;-70
2023/11/17 06:53:13;;;;;;;389.90;44.20;;;5.80;99.90;;;;;;5052679;28;20514;-70
2023/11/17 06:55:39;;;;;;;354.47;45.10;;;5.70;99.90;;;;;;5052592;28;20189;-70
2023/11/17 06:58:05;;;;;;;242.33;38.50;;;5.70;99.90;;;;;;5052412;28;20182;-70
2023/11/17 07:00:32;;;;;;;224.70;38.63;;;5.70;99.90;;;;;;5052768;28;20598;-70
2023/11/17 07:02:59;;;;;;;183.47;36.00;;;5.70;99.90;;;;;;5052536;28;20694;-70
2023/11/17 07:05:24;;;;;;;250.33;38.63;;;5.60;99.90;;;;;;5051964;28;20578;-70
2023/11/17 07:07:53;;;;;;;234.23;36.63;;;5.60;99.90;;;;;;5051709;28;20286;-70
2023/11/17 07:10:20;;;;;;;298.57;38.30;;;5.50;99.90;;;;;;5051969;28;20256;-70
2023/11/17 07:12:48;;;;;;;272.97;35.63;;;5.60;99.90;;;;;;5052080;28;20245;-70
2023/11/17 07:15:17;;;;;;;202.50;32.60;;;5.50;99.90;;;;;;5051903;28;20258;-70
2023/11/17 07:17:43;;;;;;;142.17;32.73;;;5.40;99.90;;;;;;5050280;28;20182;-71
2023/11/17 07:20:11;;;;;;;231.63;32.40;;;5.40;99.90;;;;;;5051684;28;20285;-71
2023/11/17 07:22:43;;;;;;;192.60;33.07;;;5.40;99.90;;;;;;5052129;28;20171;-71
2023/11/17 07:25:13;;;;;;;201.30;32.67;;;5.40;99.90;;;;;;5051797;28;20179;-71
2023/11/17 07:27:39;;;;;;;174.77;33.20;;;5.40;99.90;;;;;;5051743;28;20178;-70
2023/11/17 07:30:12;;;;;;;216.27;34.90;;;5.40;99.90;;;;;;5051486;28;20210;-70
2023/11/17 07:32:42;;;;;;;195.00;33.17;;;5.40;99.90;;;;;;5051981;28;20213;-70
2023/11/17 07:35:08;;;;;;;220.67;34.07;;;5.40;99.90;;;;;;5051473;28;20163;-70
2023/11/17 07:37:34;;;;;;;205.70;32.33;;;5.30;99.90;;;;;;5051559;28;20598;-70
2023/11/17 07:40:06;;;;;;;155.10;32.80;;;5.20;99.90;;;;;;5051055;28;20281;-70
2023/11/17 07:42:33;;;;;;;137.10;32.63;;;5.20;99.90;;;;;;5051181;28;20210;-70
2023/11/17 07:44:59;;;;;;;151.60;31.63;;;5.20;99.90;;;;;;5051396;28;20170;-70
2023/11/17 07:47:24;;;;;;;173.87;32.63;;;5.20;99.90;;;;;;5051324;28;20190;-70
2023/11/17 07:49:54;;;;;;;103.07;30.30;;;5.20;99.90;;;;;;5051343;28;20603;-70
2023/11/17 07:52:23;;;;;;;231.47;38.20;;;5.20;99.90;;;;;;5051061;28;20540;-70
2023/11/17 07:54:49;;;;;;;215.13;37.40;;;5.40;99.90;;;;;;5051252;28;20175;-70
2023/11/17 07:57:14;;;;;;;127.10;34.50;;;5.50;99.90;;;;;;5051416;28;20254;-70
2023/11/17 07:59:40;;;;;;;103.13;30.97;;;5.60;99.90;;;;;;5051551;28;20278;-70
2023/11/17 08:02:06;;;;;;;117.57;31.30;;;5.60;99.90;;;;;;5051348;28;20207;-70
2023/11/17 08:04:32;;;;;;;92.20;31.13;;;5.70;99.90;;;;;;5051088;28;20166;-70
2023/11/17 08:06:58;;;;;;;112.83;32.83;;;5.80;99.90;;;;;;5050494;28;20178;-71
2023/11/17 08:09:24;;;;;;;142.40;33.43;;;5.90;99.90;;;;;;5050671;28;20195;-70
2023/11/17 08:11:49;;;;;;;134.97;34.10;;;6.00;99.90;;;;;;5050840;28;20202;-69
2023/11/17 08:14:15;;;;;;;84.73;32.27;;;6.00;99.90;;;;;;5050431;28;20466;-70
2023/11/17 08:16:41;;;;;;;97.33;33.10;;;6.10;99.90;;;;;;5049886;28;20258;-70
2023/11/17 08:19:09;;;;;;;123.47;34.90;;;6.10;99.90;;;;;;5050917;28;20209;-70
2023/11/17 08:21:35;;;;;;;82.07;32.53;;;6.20;99.90;;;;;;5051003;28;20231;-70
2023/11/17 08:24:01;;;;;;;87.67;33.60;;;6.20;99.90;;;;;;5051089;28;20195;-70
2023/11/17 08:26:33;;;;;;;84.00;33.07;;;6.30;99.90;;;;;;5050816;28;20537;-70
2023/11/17 08:28:59;;;;;;;92.77;35.50;;;6.20;99.90;;;;;;5050506;28;20569;-69
2023/11/17 08:31:26;;;;;;;91.03;35.27;;;6.20;99.90;;;;;;5050354;28;20195;-69
2023/11/17 08:33:52;;;;;;;89.10;37.13;;;6.30;99.90;;;;;;5050899;28;20246;-70
2023/11/17 08:36:19;;;;;;;95.30;38.03;;;6.30;99.90;;;;;;5050651;28;20565;-70
2023/11/17 08:38:45;;;;;;;96.20;38.57;;;6.30;99.90;;;;;;5050714;28;20357;-69
2023/11/17 08:41:11;;;;;;;89.87;36.60;;;6.40;99.90;;;;;;5050749;28;20226;-70
2023/11/17 08:43:39;;;;;;;82.70;36.67;;;6.50;99.90;;;;;;5050918;28;20182;-70
2023/11/17 08:46:09;;;;;;;78.40;36.53;;;6.50;99.90;;;;;;5050549;28;20746;-70
2023/11/17 08:48:36;;;;;;;97.43;39.63;;;6.50;99.90;;;;;;5050341;28;20170;-70
2023/11/17 08:51:03;;;;;;;167.77;79.50;;;6.50;99.90;;;;;;5050747;28;20189;-70
2023/11/17 08:53:29;;;;;;;115.40;50.00;;;6.60;99.90;;;;;;5050538;28;20179;-70
2023/11/17 08:55:56;;;;;;;136.80;71.37;;;6.60;99.90;;;;;;5050447;28;20547;-70
2023/11/17 08:58:22;;;;;;;107.53;51.47;;;6.60;99.90;;;;;;5050802;28;20175;-70
2023/11/17 09:00:49;;;;;;;143.63;70.63;;;6.60;99.90;;;;;;5050411;28;20570;-70
2023/11/17 09:03:15;;;;;;;95.13;41.97;;;6.60;99.90;;;;;;5050456;28;20614;-70
2023/11/17 09:05:41;;;;;;;104.20;41.27;;;6.60;99.90;;;;;;5050650;28;20226;-70
2023/11/17 09:08:07;;;;;;;116.93;47.50;;;6.60;99.90;;;;;;5050850;28;20179;-70
2023/11/17 09:10:33;;;;;;;105.00;41.63;;;6.70;99.90;;;;;;5050490;28;20230;-70
2023/11/17 09:12:58;;;;;;;93.50;38.80;;;6.70;99.90;;;;;;5050579;28;20175;-70
2023/11/17 09:15:26;;;;;;;100.20;39.83;;;6.70;99.90;;;;;;5050718;28;20254;-70
2023/11/17 09:17:52;;;;;;;96.47;39.60;;;6.80;99.90;;;;;;5050388;28;20171;-70
2023/11/17 09:20:19;;;;;;;109.43;42.57;;;6.80;99.90;;;;;;5051159;28;20290;-70
2023/11/17 09:22:46;;;;;;;114.07;52.10;;;6.90;99.90;;;;;;5050782;28;20181;-70
2023/11/17 09:25:13;;;;;;;94.90;40.63;;;6.90;99.90;;;;;;5032353;28;20187;-70
2023/11/17 09:28:00;;;;;;;100.57;40.33;;;6.90;99.90;;;;;;5053059;28;20179;-70
2023/11/17 09:30:30;;;;;;;97.53;43.23;;;6.80;99.90;;;;;;5054032;28;20230;-70
2023/11/17 09:32:58;;;;;;;115.97;55.17;;;6.80;99.90;;;;;;5052452;28;20171;-70
2023/11/17 09:35:26;;;;;;;118.67;54.00;;;6.70;99.90;;;;;;5053778;28;20175;-70
2023/11/17 09:37:59;;;;;;;116.17;54.50;;;6.70;99.90;;;;;;5035868;28;20248;-70
2023/11/17 09:40:28;;;;;;;109.20;50.00;;;6.70;99.90;;;;;;5053439;28;20206;-70
2023/11/17 09:42:57;;;;;;;116.70;46.07;;;6.80;99.90;;;;;;5054038;28;20209;-69
2023/11/17 09:45:31;;;;;;;115.90;53.47;;;6.90;99.90;;;;;;5053569;28;20174;-69
2023/11/17 09:47:58;;;;;;;132.07;47.60;;;6.90;99.90;;;;;;5053774;28;20443;-70
2023/11/17 09:50:29;;;;;;;131.47;51.00;;;6.90;99.90;;;;;;5053585;28;20206;-70
2023/11/17 09:53:01;;;;;;;127.90;52.83;;;7.00;99.90;;;;;;5053623;28;20178;-70
2023/11/17 09:55:30;;;;;;;118.13;44.90;;;7.00;99.90;;;;;;5035274;28;20233;-70
2023/11/17 09:58:02;;;;;;;115.37;45.83;;;7.10;99.90;;;;;;5053411;28;20522;-70
2023/11/17 10:00:28;;;;;;;116.33;45.03;;;7.20;99.90;;;;;;5053676;28;20686;-70
2023/11/17 10:02:56;;;;;;;125.90;45.80;;;7.20;99.90;;;;;;5053525;28;20170;-69
2023/11/17 10:05:23;;;;;;;116.40;44.43;;;7.30;99.90;;;;;;5052880;28;20190;-70
2023/11/17 10:07:54;;;;;;;109.10;43.40;;;7.30;99.90;;;;;;5053242;28;20182;-70
2023/11/17 10:10:20;;;;;;;133.97;46.90;;;7.30;99.90;;;;;;5053162;28;20293;-69
2023/11/17 10:12:48;;;;;;;125.37;49.23;;;7.30;99.90;;;;;;5053354;28;20179;-70
2023/11/17 10:15:16;;;;;;;106.10;43.63;;;7.30;99.90;;;;;;5053174;28;20171;-71
2023/11/17 10:17:45;;;;;;;116.17;46.83;;;7.30;99.90;;;;;;5052965;28;20828;-71
2023/11/17 10:20:19;;;;;;;105.73;43.10;;;7.30;99.90;;;;;;5053269;28;20194;-70
2023/11/17 10:22:49;;;;;;;115.47;45.60;;;7.30;99.90;;;;;;5053094;28;20215;-70
2023/11/17 10:25:18;;;;;;;124.20;45.80;;;7.40;99.90;;;;;;5053099;28;20175;-70
2023/11/17 10:27:46;;;;;;;112.37;45.20;;;7.50;99.90;;;;;;5052924;28;20187;-70
2023/11/17 10:30:13;;;;;;;107.67;44.07;;;7.50;99.90;;;;;;5052513;28;20659;-70
2023/11/17 10:32:45;;;;;;;110.67;43.43;;;7.50;99.90;;;;;;5052210;28;20655;-69
2023/11/17 10:35:16;;;;;;;113.27;45.10;;;7.60;99.90;;;;;;5052817;28;20206;-71
2023/11/17 10:37:44;;;;;;;119.10;46.00;;;7.60;99.90;;;;;;5052367;28;20213;-70
2023/11/17 10:40:10;;;;;;;118.30;45.10;;;7.60;99.90;;;;;;5053059;28;20187;-70
2023/11/17 10:42:36;;;;;;;118.57;44.00;;;7.80;99.90;;;;;;5052946;28;20179;-70
2023/11/17 10:45:16;;;;;;;123.53;45.30;;;7.90;99.90;;;;;;5052826;28;20190;-70
2023/11/17 10:47:43;;;;;;;111.10;45.13;;;8.00;99.90;;;;;;5032492;28;20187;-70
2023/11/17 10:50:09;;;;;;;118.87;45.37;;;8.10;99.90;;;;;;5032838;28;20809;-71
2023/11/17 10:52:35;;;;;;;114.53;43.87;;;8.10;99.90;;;;;;5032603;28;20696;-71
2023/11/17 10:55:00;;;;;;;116.93;43.70;;;8.20;99.90;;;;;;5032593;28;20262;-70
2023/11/17 10:57:26;;;;;;;119.33;43.80;;;8.20;99.90;;;;;;5040782;28;20555;-70
2023/11/17 10:59:52;;;;;;;97.03;41.87;;;8.20;99.90;;;;;;5052491;28;20252;-70
2023/11/17 11:02:19;;;;;;;116.30;43.17;;;8.10;99.90;;;;;;5052591;28;20568;-69
2023/11/17 11:04:47;;;;;;;106.93;43.17;;;8.10;99.90;;;;;;5052526;28;20205;-70
2023/11/17 11:07:14;;;;;;;106.97;44.47;;;8.00;99.90;;;;;;5052322;28;20249;-69
2023/11/17 11:09:40;;;;;;;108.80;41.77;;;8.00;99.90;;;;;;5034181;28;20641;-69
2023/11/17 11:12:11;;;;;;;112.03;44.20;;;8.10;99.90;;;;;;5052262;28;20285;-69
2023/11/17 11:14:41;;;;;;;104.10;41.20;;;8.00;99.90;;;;;;5052320;28;20229;-69
2023/11/17 11:17:09;;;;;;;109.10;42.50;;;7.90;99.90;;;;;;5052215;28;20178;-69
2023/11/17 11:19:36;;;;;;;93.60;38.47;;;7.90;99.90;;;;;;5051934;28;20401;-69
2023/11/17 11:22:04;;;;;;;98.70;39.43;;;7.80;99.90;;;;;;5052335;28;20179;-69
2023/11/17 11:24:34;;;;;;;95.27;39.27;;;7.80;99.90;;;;;;5052099;28;20185;-70
2023/11/17 11:27:06;;;;;;;100.17;41.33;;;7.70;99.90;;;;;;5052073;28;20205;-70
2023/11/17 11:29:35;;;;;;;108.50;42.17;;;7.80;99.90;;;;;;5052323;28;20509;-68
2023/11/17 11:32:02;;;;;;;96.40;40.70;;;7.80;99.90;;;;;;5053369;28;20217;-69
2023/11/17 11:34:28;;;;;;;109.43;41.20;;;7.80;99.90;;;;;;5053610;28;20652;-68
2023/11/17 11:36:54;;;;;;;95.73;40.37;;;7.80;99.90;;;;;;5052011;28;20257;-68
2023/11/17 11:39:21;;;;;;;94.43;41.27;;;7.90;99.90;;;;;;5051541;28;20221;-68
2023/11/17 11:41:48;;;;;;;98.20;40.47;;;7.90;99.90;;;;;;5051516;28;20205;-69
2023/11/17 11:44:14;;;;;;;98.23;37.57;;;7.90;99.90;;;;;;5051697;28;20564;-69
2023/11/17 11:46:40;;;;;;;93.33;39.57;;;8.00;99.90;;;;;;5051415;28;20203;-69
2023/11/17 11:49:12;;;;;;;92.07;40.47;;;8.00;99.90;;;;;;5050575;28;20202;-69
2023/11/17 11:51:45;;;;;;;85.40;36.10;;;8.00;99.90;;;;;;5050795;28;20190;-68
2023/11/17 11:54:12;;;;;;;94.83;38.57;;;7.90;99.90;;;;;;5051756;28;20171;-68
2023/11/17 11:56:41;;;;;;;93.40;39.33;;;8.00;99.90;;;;;;5051550;28;20167;-69
2023/11/17 11:59:10;;;;;;;95.97;40.20;;;8.00;99.90;;;;;;5051004;28;20182;-69
2023/11/17 12:01:36;;;;;;;83.60;39.27;;;8.00;99.90;;;;;;5051089;28;20206;-69
2023/11/17 12:04:06;;;;;;;82.50;37.70;;;8.10;99.90;;;;;;5051331;28;20547;-68
2023/11/17 12:06:33;;;;;;;87.93;36.10;;;8.10;99.90;;;;;;5051291;28;20174;-69
2023/11/17 12:09:07;;;;;;;81.67;36.13;;;8.10;99.90;;;;;;5050670;28;20631;-70
2023/11/17 12:11:48;;;;;;;93.17;37.00;;;8.20;99.90;;;;;;5051039;28;20214;-69
2023/11/17 12:14:16;;;;;;;94.67;42.07;;;8.20;99.90;;;;;;5051256;28;20182;-69
2023/11/17 12:16:54;;;;;;;90.40;40.00;;;8.20;99.90;;;;;;5051051;28;20203;-71
2023/11/17 12:19:24;;;;;;;87.20;36.50;;;8.30;99.90;;;;;;5050754;28;20213;-68
2023/11/17 12:21:50;;;;;;;89.90;35.73;;;8.30;99.90;;;;;;5050971;28;20226;-68
2023/11/17 12:24:27;;;;;;;90.73;36.27;;;8.40;99.90;;;;;;5051445;28;20171;-68
2023/11/17 12:26:55;;;;;;;81.20;35.67;;;8.40;99.90;;;;;;5051089;28;20173;-72
2023/11/17 12:29:25;;;;;;;69.97;35.53;;;8.50;99.90;;;;;;5050759;28;20655;-69
2023/11/17 12:31:52;;;;;;;79.57;37.40;;;8.60;99.90;;;;;;5050865;28;20249;-69
2023/11/17 12:34:19;;;;;;;77.37;34.67;;;8.60;99.90;;;;;;5050698;28;20182;-69
2023/11/17 12:36:45;;;;;;;74.40;35.70;;;8.70;99.90;;;;;;5050999;28;20174;-69